KMMK 162353Z AUTO 18010KT 10SM CLR 28/19 A2999 RMK AO2 SLP152 T02830189 10333 20283 53002